sensor_id;sensor_type;location;lat;lon;timestamp;noise_LAeq;noise_LA_min;noise_LA_max;noise_LA01;noise_LA95
66888;Laerm;67239;51.680;5.976;2023-03-26T00:01:32;62.79;35.31;79.78;;
66888;Laerm;67239;51.680;5.976;2023-03-26T00:04:05;65.34;35.35;81.87;;
66888;Laerm;67239;51.680;5.976;2023-03-26T00:06:36;56.12;34.13;73.55;;
66888;Laerm;67239;51.680;5.976;2023-03-26T00:09:09;58.65;34.56;78.96;;
66888;Laerm;67239;51.680;5.976;2023-03-26T00:11:40;62.28;34.02;79.87;;
66888;Laerm;67239;51.680;5.976;2023-03-26T00:14:09;61.91;34.07;82.36;;
66888;Laerm;67239;51.680;5.976;2023-03-26T00:16:40;37.01;34.08;44.52;;
66888;Laerm;67239;51.680;5.976;2023-03-26T00:19:10;57.95;33.42;76.21;;
66888;Laerm;67239;51.680;5.976;2023-03-26T00:21:38;51.30;33.55;71.06;;
66888;Laerm;67239;51.680;5.976;2023-03-26T00:24:12;56.80;33.46;74.85;;
66888;Laerm;67239;51.680;5.976;2023-03-26T00:26:43;54.82;34.31;70.21;;
66888;Laerm;67239;51.680;5.976;2023-03-26T00:29:14;59.62;34.58;79.48;;
66888;Laerm;67239;51.680;5.976;2023-03-26T00:31:41;36.61;33.25;43.79;;
66888;Laerm;67239;51.680;5.976;2023-03-26T00:34:11;56.03;33.99;72.36;;
66888;Laerm;67239;51.680;5.976;2023-03-26T00:36:41;57.58;34.54;76.61;;
66888;Laerm;67239;51.680;5.976;2023-03-26T00:39:09;64.49;35.65;80.87;;
66888;Laerm;67239;51.680;5.976;2023-03-26T00:41:36;53.41;33.84;71.18;;
66888;Laerm;67239;51.680;5.976;2023-03-26T00:44:09;37.55;33.60;49.32;;
66888;Laerm;67239;51.680;5.976;2023-03-26T00:46:37;37.62;33.44;49.17;;
66888;Laerm;67239;51.680;5.976;2023-03-26T00:49:04;36.63;32.99;48.53;;
66888;Laerm;67239;51.680;5.976;2023-03-26T00:51:31;37.37;33.49;51.82;;
66888;Laerm;67239;51.680;5.976;2023-03-26T00:53:59;36.56;32.55;47.81;;
66888;Laerm;67239;51.680;5.976;2023-03-26T00:56:27;36.38;32.54;50.79;;
66888;Laerm;67239;51.680;5.976;2023-03-26T00:58:54;56.50;34.35;76.28;;
66888;Laerm;67239;51.680;5.976;2023-03-26T01:01:24;58.88;35.14;79.75;;
66888;Laerm;67239;51.680;5.976;2023-03-26T01:04:16;41.98;32.69;66.52;;
66888;Laerm;67239;51.680;5.976;2023-03-26T01:06:45;35.79;32.93;39.46;;
66888;Laerm;67239;51.680;5.976;2023-03-26T01:09:16;38.22;32.91;57.68;;
66888;Laerm;67239;51.680;5.976;2023-03-26T01:11:47;35.62;32.47;42.03;;
66888;Laerm;67239;51.680;5.976;2023-03-26T01:14:20;59.16;32.49;79.99;;
66888;Laerm;67239;51.680;5.976;2023-03-26T01:16:57;36.02;33.22;42.89;;
66888;Laerm;67239;51.680;5.976;2023-03-26T01:22:11;59.75;34.19;75.40;;
66888;Laerm;67239;51.680;5.976;2023-03-26T01:24:40;60.00;33.03;79.49;;
66888;Laerm;67239;51.680;5.976;2023-03-26T01:27:37;55.52;33.07;76.29;;
66888;Laerm;67239;51.680;5.976;2023-03-26T01:30:25;56.71;32.31;76.16;;
66888;Laerm;67239;51.680;5.976;2023-03-26T01:33:20;35.86;33.05;49.00;;
66888;Laerm;67239;51.680;5.976;2023-03-26T01:36:22;37.04;32.22;53.65;;
66888;Laerm;67239;51.680;5.976;2023-03-26T01:39:28;59.06;33.49;78.18;;
66888;Laerm;67239;51.680;5.976;2023-03-26T01:42:06;57.90;32.76;78.05;;
66888;Laerm;67239;51.680;5.976;2023-03-26T01:44:46;63.61;33.54;84.62;;
66888;Laerm;67239;51.680;5.976;2023-03-26T01:47:18;60.19;32.48;78.90;;
66888;Laerm;67239;51.680;5.976;2023-03-26T01:49:46;51.60;33.03;66.45;;
66888;Laerm;67239;51.680;5.976;2023-03-26T01:52:21;63.89;32.90;83.83;;
66888;Laerm;67239;51.680;5.976;2023-03-26T01:54:53;35.70;32.75;41.41;;
66888;Laerm;67239;51.680;5.976;2023-03-26T02:01:02;36.94;32.83;47.66;;
66888;Laerm;67239;51.680;5.976;2023-03-26T02:03:46;36.70;33.43;44.37;;
66888;Laerm;67239;51.680;5.976;2023-03-26T02:06:45;36.46;33.17;49.98;;
66888;Laerm;67239;51.680;5.976;2023-03-26T02:09:20;36.26;32.37;41.58;;
66888;Laerm;67239;51.680;5.976;2023-03-26T02:11:50;35.70;32.49;41.32;;
66888;Laerm;67239;51.680;5.976;2023-03-26T02:14:17;36.05;32.23;44.82;;
66888;Laerm;67239;51.680;5.976;2023-03-26T02:16:44;35.69;32.62;47.25;;
66888;Laerm;67239;51.680;5.976;2023-03-26T02:19:14;47.53;32.97;67.55;;
66888;Laerm;67239;51.680;5.976;2023-03-26T02:21:47;50.39;33.08;69.46;;
66888;Laerm;67239;51.680;5.976;2023-03-26T02:24:19;51.14;33.11;68.57;;
66888;Laerm;67239;51.680;5.976;2023-03-26T02:26:49;50.47;32.40;69.29;;
66888;Laerm;67239;51.680;5.976;2023-03-26T02:29:16;45.89;32.49;69.06;;
66888;Laerm;67239;51.680;5.976;2023-03-26T02:31:48;42.83;33.44;64.88;;
66888;Laerm;67239;51.680;5.976;2023-03-26T02:34:15;55.64;32.93;73.61;;
66888;Laerm;67239;51.680;5.976;2023-03-26T02:36:50;56.42;32.39;73.17;;
66888;Laerm;67239;51.680;5.976;2023-03-26T02:39:18;37.71;34.42;50.01;;
66888;Laerm;67239;51.680;5.976;2023-03-26T02:41:53;58.01;33.84;76.65;;
66888;Laerm;67239;51.680;5.976;2023-03-26T02:44:20;37.94;33.34;52.07;;
66888;Laerm;67239;51.680;5.976;2023-03-26T02:46:57;38.39;32.70;52.09;;
66888;Laerm;67239;51.680;5.976;2023-03-26T02:49:43;38.68;32.91;56.48;;
66888;Laerm;67239;51.680;5.976;2023-03-26T02:52:15;55.18;33.09;71.13;;
66888;Laerm;67239;51.680;5.976;2023-03-26T02:54:47;38.03;33.22;51.39;;
66888;Laerm;67239;51.680;5.976;2023-03-26T02:57:19;41.10;34.14;62.08;;
66888;Laerm;67239;51.680;5.976;2023-03-26T02:59:49;42.47;33.19;69.64;;
66888;Laerm;67239;51.680;5.976;2023-03-26T03:02:39;40.96;33.49;64.99;;
66888;Laerm;67239;51.680;5.976;2023-03-26T03:05:36;39.66;32.97;55.66;;
66888;Laerm;67239;51.680;5.976;2023-03-26T03:08:26;58.49;32.95;79.79;;
66888;Laerm;67239;51.680;5.976;2023-03-26T03:11:18;46.17;34.06;65.73;;
66888;Laerm;67239;51.680;5.976;2023-03-26T03:13:51;62.56;34.61;76.57;;
66888;Laerm;67239;51.680;5.976;2023-03-26T03:16:25;40.84;32.77;57.83;;
66888;Laerm;67239;51.680;5.976;2023-03-26T03:18:53;57.96;33.91;76.85;;
66888;Laerm;67239;51.680;5.976;2023-03-26T03:21:28;54.40;33.79;72.14;;
66888;Laerm;67239;51.680;5.976;2023-03-26T03:23:56;36.86;31.66;51.78;;
66888;Laerm;67239;51.680;5.976;2023-03-26T03:26:28;37.88;33.00;53.21;;
66888;Laerm;67239;51.680;5.976;2023-03-26T03:28:59;37.77;32.62;56.28;;
66888;Laerm;67239;51.680;5.976;2023-03-26T03:31:26;40.89;33.55;55.21;;
66888;Laerm;67239;51.680;5.976;2023-03-26T03:34:00;55.20;34.14;73.44;;
66888;Laerm;67239;51.680;5.976;2023-03-26T03:36:30;57.07;32.63;74.53;;
66888;Laerm;67239;51.680;5.976;2023-03-26T03:39:05;65.88;32.44;80.39;;
66888;Laerm;67239;51.680;5.976;2023-03-26T03:41:34;60.70;34.43;74.68;;
66888;Laerm;67239;51.680;5.976;2023-03-26T03:44:04;63.56;34.42;79.67;;
66888;Laerm;67239;51.680;5.976;2023-03-26T03:46:32;59.33;33.72;74.45;;
66888;Laerm;67239;51.680;5.976;2023-03-26T03:49:00;58.95;32.71;75.56;;
66888;Laerm;67239;51.680;5.976;2023-03-26T03:51:31;58.84;32.24;74.26;;
66888;Laerm;67239;51.680;5.976;2023-03-26T03:54:01;62.74;33.08;79.39;;
66888;Laerm;67239;51.680;5.976;2023-03-26T03:56:49;58.61;33.15;75.36;;
66888;Laerm;67239;51.680;5.976;2023-03-26T03:59:37;58.41;34.07;77.76;;
66888;Laerm;67239;51.680;5.976;2023-03-26T04:02:14;65.21;33.79;82.22;;
66888;Laerm;67239;51.680;5.976;2023-03-26T04:04:56;65.87;36.72;80.64;;
66888;Laerm;67239;51.680;5.976;2023-03-26T04:07:24;63.35;35.38;81.11;;
66888;Laerm;67239;51.680;5.976;2023-03-26T04:10:07;62.53;34.67;81.60;;
66888;Laerm;67239;51.680;5.976;2023-03-26T04:12:57;65.31;33.96;83.11;;
66888;Laerm;67239;51.680;5.976;2023-03-26T04:15:41;47.30;33.78;64.74;;
66888;Laerm;67239;51.680;5.976;2023-03-26T04:18:09;68.49;36.69;86.74;;
66888;Laerm;67239;51.680;5.976;2023-03-26T04:20:43;49.02;34.25;67.77;;
66888;Laerm;67239;51.680;5.976;2023-03-26T04:23:20;60.08;34.09;77.30;;
66888;Laerm;67239;51.680;5.976;2023-03-26T04:25:55;51.03;34.48;66.91;;
66888;Laerm;67239;51.680;5.976;2023-03-26T04:28:56;48.23;35.84;65.80;;
66888;Laerm;67239;51.680;5.976;2023-03-26T04:31:29;58.80;37.14;73.60;;
66888;Laerm;67239;51.680;5.976;2023-03-26T04:34:19;44.53;34.17;59.28;;
66888;Laerm;67239;51.680;5.976;2023-03-26T04:37:21;45.36;35.35;58.93;;
66888;Laerm;67239;51.680;5.976;2023-03-26T04:40:01;58.28;34.87;76.92;;
66888;Laerm;67239;51.680;5.976;2023-03-26T04:42:38;55.79;36.26;74.27;;
66888;Laerm;67239;51.680;5.976;2023-03-26T04:45:21;45.68;36.07;58.53;;
66888;Laerm;67239;51.680;5.976;2023-03-26T04:47:58;46.74;35.97;58.75;;
66888;Laerm;67239;51.680;5.976;2023-03-26T04:50:25;61.39;36.52;78.20;;
66888;Laerm;67239;51.680;5.976;2023-03-26T04:52:55;47.49;36.48;62.70;;
66888;Laerm;67239;51.680;5.976;2023-03-26T04:55:50;49.06;36.96;72.40;;
66888;Laerm;67239;51.680;5.976;2023-03-26T04:58:35;56.96;38.33;77.43;;
66888;Laerm;67239;51.680;5.976;2023-03-26T05:01:03;46.53;35.91;62.92;;
66888;Laerm;67239;51.680;5.976;2023-03-26T05:03:38;52.63;40.39;75.14;;
66888;Laerm;67239;51.680;5.976;2023-03-26T05:06:12;47.99;37.79;65.88;;
66888;Laerm;67239;51.680;5.976;2023-03-26T05:08:39;46.54;38.53;64.08;;
66888;Laerm;67239;51.680;5.976;2023-03-26T05:11:14;45.04;35.93;62.07;;
66888;Laerm;67239;51.680;5.976;2023-03-26T05:13:41;55.54;35.46;72.52;;
66888;Laerm;67239;51.680;5.976;2023-03-26T05:16:12;50.11;36.11;65.31;;
66888;Laerm;67239;51.680;5.976;2023-03-26T05:18:44;46.60;37.43;62.45;;
66888;Laerm;67239;51.680;5.976;2023-03-26T05:21:13;46.42;38.41;61.14;;
66888;Laerm;67239;51.680;5.976;2023-03-26T05:23:40;46.61;41.78;58.18;;
66888;Laerm;67239;51.680;5.976;2023-03-26T05:26:18;54.79;37.76;71.35;;
66888;Laerm;67239;51.680;5.976;2023-03-26T05:28:46;64.46;38.49;79.17;;
66888;Laerm;67239;51.680;5.976;2023-03-26T05:31:24;55.70;38.20;73.15;;
66888;Laerm;67239;51.680;5.976;2023-03-26T05:33:57;60.38;37.38;78.92;;
66888;Laerm;67239;51.680;5.976;2023-03-26T05:36:26;44.33;37.62;60.73;;
66888;Laerm;67239;51.680;5.976;2023-03-26T05:39:14;43.41;36.69;57.33;;
66888;Laerm;67239;51.680;5.976;2023-03-26T05:42:04;58.76;34.23;78.88;;
66888;Laerm;67239;51.680;5.976;2023-03-26T05:44:49;62.39;34.95;82.27;;
66888;Laerm;67239;51.680;5.976;2023-03-26T05:47:22;44.53;35.40;64.33;;
66888;Laerm;67239;51.680;5.976;2023-03-26T05:49:49;56.63;34.38;73.83;;
66888;Laerm;67239;51.680;5.976;2023-03-26T05:52:17;59.94;32.60;75.78;;
66888;Laerm;67239;51.680;5.976;2023-03-26T05:55:03;62.88;32.89;81.07;;
66888;Laerm;67239;51.680;5.976;2023-03-26T05:57:49;43.70;33.06;56.72;;
66888;Laerm;67239;51.680;5.976;2023-03-26T06:00:42;38.01;32.31;50.00;;
66888;Laerm;67239;51.680;5.976;2023-03-26T06:03:19;44.81;33.59;65.15;;
66888;Laerm;67239;51.680;5.976;2023-03-26T06:06:18;43.19;33.24;55.35;;
66888;Laerm;67239;51.680;5.976;2023-03-26T06:08:53;55.60;32.34;72.69;;
66888;Laerm;67239;51.680;5.976;2023-03-26T06:11:30;57.69;33.27;76.92;;
66888;Laerm;67239;51.680;5.976;2023-03-26T06:14:02;43.29;32.90;58.08;;
66888;Laerm;67239;51.680;5.976;2023-03-26T06:16:30;44.17;34.17;61.47;;
66888;Laerm;67239;51.680;5.976;2023-03-26T06:19:15;58.50;34.57;77.81;;
66888;Laerm;67239;51.680;5.976;2023-03-26T06:21:48;57.90;34.56;76.53;;
66888;Laerm;67239;51.680;5.976;2023-03-26T06:24:30;50.94;33.87;65.73;;
66888;Laerm;67239;51.680;5.976;2023-03-26T06:27:05;58.13;34.48;76.80;;
66888;Laerm;67239;51.680;5.976;2023-03-26T06:29:52;59.09;35.96;77.42;;
66888;Laerm;67239;51.680;5.976;2023-03-26T06:32:38;61.24;39.10;76.69;;
66888;Laerm;67239;51.680;5.976;2023-03-26T06:35:09;53.56;36.06;69.72;;
66888;Laerm;67239;51.680;5.976;2023-03-26T06:37:37;57.59;37.49;75.71;;
66888;Laerm;67239;51.680;5.976;2023-03-26T06:40:06;48.15;38.07;64.12;;
66888;Laerm;67239;51.680;5.976;2023-03-26T06:42:51;62.53;39.03;81.47;;
66888;Laerm;67239;51.680;5.976;2023-03-26T06:45:54;61.03;37.72;77.50;;
66888;Laerm;67239;51.680;5.976;2023-03-26T06:48:40;62.44;36.77;76.63;;
66888;Laerm;67239;51.680;5.976;2023-03-26T06:51:40;58.59;37.22;78.13;;
66888;Laerm;67239;51.680;5.976;2023-03-26T06:54:15;47.21;35.71;64.50;;
66888;Laerm;67239;51.680;5.976;2023-03-26T06:56:46;40.84;36.11;56.85;;
66888;Laerm;67239;51.680;5.976;2023-03-26T06:59:32;60.72;37.10;79.89;;
66888;Laerm;67239;51.680;5.976;2023-03-26T07:02:17;57.50;38.45;76.51;;
66888;Laerm;67239;51.680;5.976;2023-03-26T07:05:04;61.54;36.80;77.01;;
66888;Laerm;67239;51.680;5.976;2023-03-26T07:07:49;52.37;37.23;69.05;;
66888;Laerm;67239;51.680;5.976;2023-03-26T07:10:55;63.58;36.34;78.59;;
66888;Laerm;67239;51.680;5.976;2023-03-26T07:13:43;60.92;35.42;78.28;;
66888;Laerm;67239;51.680;5.976;2023-03-26T07:16:30;63.66;38.07;82.49;;
66888;Laerm;67239;51.680;5.976;2023-03-26T07:19:20;65.79;35.16;80.65;;
66888;Laerm;67239;51.680;5.976;2023-03-26T07:21:48;61.21;35.15;80.68;;
66888;Laerm;67239;51.680;5.976;2023-03-26T07:24:36;60.99;37.71;78.68;;
66888;Laerm;67239;51.680;5.976;2023-03-26T07:34:02;64.08;39.51;81.09;;
66888;Laerm;67239;51.680;5.976;2023-03-26T07:37:04;60.51;40.67;80.92;;
66888;Laerm;67239;51.680;5.976;2023-03-26T07:40:16;63.72;40.11;79.48;;
66888;Laerm;67239;51.680;5.976;2023-03-26T07:43:45;63.43;40.70;76.64;;
66888;Laerm;67239;51.680;5.976;2023-03-26T07:46:35;63.94;41.41;79.95;;
66888;Laerm;67239;51.680;5.976;2023-03-26T07:49:14;64.98;41.43;79.61;;
66888;Laerm;67239;51.680;5.976;2023-03-26T07:52:02;66.20;43.57;83.00;;
66888;Laerm;67239;51.680;5.976;2023-03-26T07:54:53;65.31;44.75;80.32;;
66888;Laerm;67239;51.680;5.976;2023-03-26T07:57:48;65.84;46.14;79.39;;
66888;Laerm;67239;51.680;5.976;2023-03-26T08:00:51;68.37;48.87;82.24;;
66888;Laerm;67239;51.680;5.976;2023-03-26T08:03:39;66.58;43.68;78.86;;
66888;Laerm;67239;51.680;5.976;2023-03-26T08:06:34;60.57;42.20;77.65;;
66888;Laerm;67239;51.680;5.976;2023-03-26T08:12:51;63.22;40.67;79.80;;
66888;Laerm;67239;51.680;5.976;2023-03-26T08:21:33;66.78;47.95;81.91;;
66888;Laerm;67239;51.680;5.976;2023-03-26T08:24:21;64.70;46.14;81.75;;
66888;Laerm;67239;51.680;5.976;2023-03-26T08:27:21;67.01;45.75;81.76;;
66888;Laerm;67239;51.680;5.976;2023-03-26T08:33:02;62.81;47.17;79.42;;
66888;Laerm;67239;51.680;5.976;2023-03-26T08:35:30;61.10;47.60;75.49;;
66888;Laerm;67239;51.680;5.976;2023-03-26T08:37:59;68.36;46.05;82.98;;
66888;Laerm;67239;51.680;5.976;2023-03-26T08:48:47;70.90;43.67;83.08;;
66888;Laerm;67239;51.680;5.976;2023-03-26T09:03:54;67.28;42.71;81.49;;
66888;Laerm;67239;51.680;5.976;2023-03-26T09:06:45;64.88;41.61;79.46;;
66888;Laerm;67239;51.680;5.976;2023-03-26T09:09:52;64.95;41.53;81.19;;
66888;Laerm;67239;51.680;5.976;2023-03-26T09:22:10;63.25;42.19;80.52;;
66888;Laerm;67239;51.680;5.976;2023-03-26T09:39:35;61.53;41.10;77.87;;
66888;Laerm;67239;51.680;5.976;2023-03-26T09:42:52;69.88;38.54;85.51;;
66888;Laerm;67239;51.680;5.976;2023-03-26T09:58:18;66.76;40.51;80.81;;
66888;Laerm;67239;51.680;5.976;2023-03-26T10:01:34;67.27;43.72;80.94;;
66888;Laerm;67239;51.680;5.976;2023-03-26T10:07:20;66.85;37.30;79.44;;
66888;Laerm;67239;51.680;5.976;2023-03-26T10:13:12;63.26;38.32;79.68;;
66888;Laerm;67239;51.680;5.976;2023-03-26T10:30:16;68.70;42.37;82.35;;
66888;Laerm;67239;51.680;5.976;2023-03-26T10:36:30;68.54;45.74;82.12;;
66888;Laerm;67239;51.680;5.976;2023-03-26T10:45:47;65.61;38.83;81.52;;
66888;Laerm;67239;51.680;5.976;2023-03-26T10:51:44;66.60;42.25;79.52;;
66888;Laerm;67239;51.680;5.976;2023-03-26T10:56:57;69.39;43.38;84.25;;
66888;Laerm;67239;51.680;5.976;2023-03-26T10:59:26;70.50;43.26;81.48;;
66888;Laerm;67239;51.680;5.976;2023-03-26T11:02:20;66.60;44.81;77.43;;
66888;Laerm;67239;51.680;5.976;2023-03-26T11:05:21;66.95;42.84;79.29;;
66888;Laerm;67239;51.680;5.976;2023-03-26T11:08:04;68.96;44.21;83.18;;
66888;Laerm;67239;51.680;5.976;2023-03-26T11:19:13;66.09;43.66;78.44;;
66888;Laerm;67239;51.680;5.976;2023-03-26T11:22:27;66.79;42.53;81.41;;
66888;Laerm;67239;51.680;5.976;2023-03-26T11:28:36;66.15;42.56;78.42;;
66888;Laerm;67239;51.680;5.976;2023-03-26T11:32:08;69.26;44.69;84.70;;
66888;Laerm;67239;51.680;5.976;2023-03-26T11:34:40;68.52;44.05;81.41;;
66888;Laerm;67239;51.680;5.976;2023-03-26T11:37:33;69.03;45.14;82.48;;
66888;Laerm;67239;51.680;5.976;2023-03-26T11:40:15;69.11;48.60;80.78;;
66888;Laerm;67239;51.680;5.976;2023-03-26T11:42:52;68.43;41.38;79.94;;
66888;Laerm;67239;51.680;5.976;2023-03-26T11:45:26;69.77;43.43;82.85;;
66888;Laerm;67239;51.680;5.976;2023-03-26T11:48:05;68.64;41.48;81.63;;
66888;Laerm;67239;51.680;5.976;2023-03-26T11:50:44;69.81;42.69;82.86;;
66888;Laerm;67239;51.680;5.976;2023-03-26T11:53:17;66.54;40.51;80.94;;
66888;Laerm;67239;51.680;5.976;2023-03-26T11:55:56;70.10;44.68;81.20;;
66888;Laerm;67239;51.680;5.976;2023-03-26T11:58:39;66.18;45.33;77.41;;
66888;Laerm;67239;51.680;5.976;2023-03-26T12:01:16;71.44;43.91;83.37;;
66888;Laerm;67239;51.680;5.976;2023-03-26T12:03:56;70.76;46.75;83.41;;
66888;Laerm;67239;51.680;5.976;2023-03-26T12:06:25;69.39;43.51;79.56;;
66888;Laerm;67239;51.680;5.976;2023-03-26T12:08:54;67.59;42.62;82.68;;
66888;Laerm;67239;51.680;5.976;2023-03-26T12:11:29;67.23;42.73;78.98;;
66888;Laerm;67239;51.680;5.976;2023-03-26T12:14:03;67.41;42.29;82.26;;
66888;Laerm;67239;51.680;5.976;2023-03-26T12:16:33;68.51;44.46;80.24;;
66888;Laerm;67239;51.680;5.976;2023-03-26T12:19:17;65.58;38.48;82.12;;
66888;Laerm;67239;51.680;5.976;2023-03-26T12:21:50;68.91;38.94;81.87;;
66888;Laerm;67239;51.680;5.976;2023-03-26T12:24:30;67.68;40.68;81.67;;
66888;Laerm;67239;51.680;5.976;2023-03-26T12:27:25;69.20;40.30;80.46;;
66888;Laerm;67239;51.680;5.976;2023-03-26T12:30:33;65.76;37.96;80.76;;
66888;Laerm;67239;51.680;5.976;2023-03-26T12:33:03;68.83;38.80;82.86;;
66888;Laerm;67239;51.680;5.976;2023-03-26T12:35:35;69.18;44.89;81.07;;
66888;Laerm;67239;51.680;5.976;2023-03-26T12:38:32;70.03;47.32;81.75;;
66888;Laerm;67239;51.680;5.976;2023-03-26T12:41:09;66.13;40.42;79.48;;
66888;Laerm;67239;51.680;5.976;2023-03-26T12:44:27;67.16;40.99;81.00;;
66888;Laerm;67239;51.680;5.976;2023-03-26T12:47:29;59.95;37.36;77.80;;
66888;Laerm;67239;51.680;5.976;2023-03-26T12:50:22;66.54;40.64;80.53;;
66888;Laerm;67239;51.680;5.976;2023-03-26T12:56:30;67.46;41.29;80.66;;
66888;Laerm;67239;51.680;5.976;2023-03-26T12:59:16;68.30;42.30;82.34;;
66888;Laerm;67239;51.680;5.976;2023-03-26T13:19:12;69.00;48.39;81.54;;
66888;Laerm;67239;51.680;5.976;2023-03-26T13:31:24;68.69;44.05;81.66;;
66888;Laerm;67239;51.680;5.976;2023-03-26T13:37:07;69.75;43.03;82.86;;
66888;Laerm;67239;51.680;5.976;2023-03-26T13:43:27;64.83;41.38;78.55;;
66888;Laerm;67239;51.680;5.976;2023-03-26T13:46:12;69.45;45.44;84.70;;
66888;Laerm;67239;51.680;5.976;2023-03-26T13:48:57;66.24;44.47;79.58;;
66888;Laerm;67239;51.680;5.976;2023-03-26T13:51:52;68.05;45.22;81.67;;
66888;Laerm;67239;51.680;5.976;2023-03-26T13:54:30;65.74;41.97;79.70;;
66888;Laerm;67239;51.680;5.976;2023-03-26T14:00:14;64.07;41.31;79.58;;
66888;Laerm;67239;51.680;5.976;2023-03-26T14:02:48;66.10;44.20;78.07;;
66888;Laerm;67239;51.680;5.976;2023-03-26T14:05:33;67.89;44.22;80.32;;
66888;Laerm;67239;51.680;5.976;2023-03-26T14:08:21;65.38;41.50;80.29;;
66888;Laerm;67239;51.680;5.976;2023-03-26T14:11:00;63.14;39.28;79.30;;
66888;Laerm;67239;51.680;5.976;2023-03-26T14:13:41;68.27;46.42;80.17;;
66888;Laerm;67239;51.680;5.976;2023-03-26T14:16:21;68.43;45.00;79.78;;
66888;Laerm;67239;51.680;5.976;2023-03-26T14:19:33;63.18;39.99;75.76;;
66888;Laerm;67239;51.680;5.976;2023-03-26T14:25:54;64.60;43.09;78.80;;
66888;Laerm;67239;51.680;5.976;2023-03-26T14:32:27;67.59;40.68;83.37;;
66888;Laerm;67239;51.680;5.976;2023-03-26T14:35:15;67.24;42.47;83.38;;
66888;Laerm;67239;51.680;5.976;2023-03-26T14:38:08;66.24;42.17;82.60;;
66888;Laerm;67239;51.680;5.976;2023-03-26T14:40:55;63.73;39.55;80.02;;
66888;Laerm;67239;51.680;5.976;2023-03-26T14:44:11;68.33;38.44;81.68;;
66888;Laerm;67239;51.680;5.976;2023-03-26T14:52:44;67.99;44.08;81.58;;
66888;Laerm;67239;51.680;5.976;2023-03-26T15:07:28;65.01;39.38;82.87;;
66888;Laerm;67239;51.680;5.976;2023-03-26T15:11:09;67.07;42.75;81.75;;
66888;Laerm;67239;51.680;5.976;2023-03-26T15:14:09;67.08;42.03;82.19;;
66888;Laerm;67239;51.680;5.976;2023-03-26T15:41:57;66.46;40.34;81.37;;
66888;Laerm;67239;51.680;5.976;2023-03-26T15:50:34;68.36;41.19;86.24;;
66888;Laerm;67239;51.680;5.976;2023-03-26T15:59:33;64.09;38.46;81.58;;
66888;Laerm;67239;51.680;5.976;2023-03-26T16:02:38;68.60;44.34;83.19;;
66888;Laerm;67239;51.680;5.976;2023-03-26T16:06:02;62.95;38.55;80.53;;
66888;Laerm;67239;51.680;5.976;2023-03-26T16:11:56;65.52;41.03;78.91;;
66888;Laerm;67239;51.680;5.976;2023-03-26T16:17:04;66.24;37.35;81.48;;
66888;Laerm;67239;51.680;5.976;2023-03-26T16:22:34;66.94;40.78;82.04;;
66888;Laerm;67239;51.680;5.976;2023-03-26T16:25:32;65.03;40.59;84.21;;
66888;Laerm;67239;51.680;5.976;2023-03-26T16:30:37;66.25;37.92;79.94;;
66888;Laerm;67239;51.680;5.976;2023-03-26T16:33:17;69.03;44.94;81.69;;
66888;Laerm;67239;51.680;5.976;2023-03-26T16:39:11;65.27;37.18;82.53;;
66888;Laerm;67239;51.680;5.976;2023-03-26T16:44:49;66.56;44.25;82.39;;
66888;Laerm;67239;51.680;5.976;2023-03-26T17:08:45;66.17;39.43;81.44;;
66888;Laerm;67239;51.680;5.976;2023-03-26T17:11:21;66.05;40.26;76.34;;
66888;Laerm;67239;51.680;5.976;2023-03-26T17:20:16;65.08;39.31;81.93;;
66888;Laerm;67239;51.680;5.976;2023-03-26T17:22:51;64.68;38.74;78.45;;
66888;Laerm;67239;51.680;5.976;2023-03-26T17:25:35;66.20;39.33;77.98;;
66888;Laerm;67239;51.680;5.976;2023-03-26T17:31:00;65.72;38.59;83.67;;
66888;Laerm;67239;51.680;5.976;2023-03-26T17:33:37;62.71;38.98;78.67;;
66888;Laerm;67239;51.680;5.976;2023-03-26T17:41:07;64.67;35.75;80.11;;
66888;Laerm;67239;51.680;5.976;2023-03-26T17:43:50;65.48;35.82;84.19;;
66888;Laerm;67239;51.680;5.976;2023-03-26T17:49:03;65.51;35.67;80.74;;
66888;Laerm;67239;51.680;5.976;2023-03-26T17:51:45;57.08;36.45;74.37;;
66888;Laerm;67239;51.680;5.976;2023-03-26T17:54:31;66.23;36.33;82.68;;
66888;Laerm;67239;51.680;5.976;2023-03-26T17:57:09;66.02;36.79;82.10;;
66888;Laerm;67239;51.680;5.976;2023-03-26T17:59:41;62.15;33.36;80.62;;
66888;Laerm;67239;51.680;5.976;2023-03-26T18:02:20;64.72;36.05;79.04;;
66888;Laerm;67239;51.680;5.976;2023-03-26T18:04:52;63.51;35.42;79.51;;
66888;Laerm;67239;51.680;5.976;2023-03-26T18:13:28;60.08;33.66;76.91;;
66888;Laerm;67239;51.680;5.976;2023-03-26T18:16:11;62.53;35.42;77.71;;
66888;Laerm;67239;51.680;5.976;2023-03-26T18:18:48;61.62;36.18;78.05;;
66888;Laerm;67239;51.680;5.976;2023-03-26T18:21:33;63.59;37.39;76.09;;
66888;Laerm;67239;51.680;5.976;2023-03-26T18:24:07;58.83;37.08;75.50;;
66888;Laerm;67239;51.680;5.976;2023-03-26T18:26:47;53.94;36.65;71.02;;
66888;Laerm;67239;51.680;5.976;2023-03-26T18:29:27;61.67;35.74;78.73;;
66888;Laerm;67239;51.680;5.976;2023-03-26T18:31:59;63.87;35.92;79.08;;
66888;Laerm;67239;51.680;5.976;2023-03-26T18:34:32;63.17;38.15;76.40;;
66888;Laerm;67239;51.680;5.976;2023-03-26T18:37:16;58.76;37.49;77.21;;
66888;Laerm;67239;51.680;5.976;2023-03-26T18:42:51;59.35;34.03;75.09;;
66888;Laerm;67239;51.680;5.976;2023-03-26T18:47:53;64.34;33.26;84.33;;
66888;Laerm;67239;51.680;5.976;2023-03-26T18:50:27;60.81;35.13;77.38;;
66888;Laerm;67239;51.680;5.976;2023-03-26T18:52:58;52.71;34.87;71.56;;
66888;Laerm;67239;51.680;5.976;2023-03-26T18:55:28;63.61;34.45;79.24;;
66888;Laerm;67239;51.680;5.976;2023-03-26T18:57:56;61.04;36.21;79.35;;
66888;Laerm;67239;51.680;5.976;2023-03-26T19:00:26;51.86;34.27;68.48;;
66888;Laerm;67239;51.680;5.976;2023-03-26T19:03:03;60.20;36.08;75.29;;
66888;Laerm;67239;51.680;5.976;2023-03-26T19:05:33;58.41;35.28;77.33;;
66888;Laerm;67239;51.680;5.976;2023-03-26T19:08:04;68.79;37.74;83.37;;
66888;Laerm;67239;51.680;5.976;2023-03-26T19:10:32;65.27;38.90;84.51;;
66888;Laerm;67239;51.680;5.976;2023-03-26T19:13:01;65.49;40.55;85.17;;
66888;Laerm;67239;51.680;5.976;2023-03-26T19:15:33;54.45;34.07;72.87;;
66888;Laerm;67239;51.680;5.976;2023-03-26T19:18:06;62.06;34.75;79.99;;
66888;Laerm;67239;51.680;5.976;2023-03-26T19:20:49;64.66;34.43;77.77;;
66888;Laerm;67239;51.680;5.976;2023-03-26T19:23:31;63.17;33.46;78.79;;
66888;Laerm;67239;51.680;5.976;2023-03-26T19:26:03;67.03;36.76;83.59;;
66888;Laerm;67239;51.680;5.976;2023-03-26T19:28:50;65.72;34.17;84.28;;
66888;Laerm;67239;51.680;5.976;2023-03-26T19:31:28;65.49;36.24;82.10;;
66888;Laerm;67239;51.680;5.976;2023-03-26T19:34:30;68.77;34.75;87.89;;
66888;Laerm;67239;51.680;5.976;2023-03-26T19:37:03;66.40;37.63;81.71;;
66888;Laerm;67239;51.680;5.976;2023-03-26T19:39:45;64.95;34.84;80.45;;
66888;Laerm;67239;51.680;5.976;2023-03-26T19:44:45;59.25;35.32;76.90;;
66888;Laerm;67239;51.680;5.976;2023-03-26T19:47:23;63.77;32.23;77.60;;
66888;Laerm;67239;51.680;5.976;2023-03-26T19:50:30;59.16;34.60;76.33;;
66888;Laerm;67239;51.680;5.976;2023-03-26T19:55:57;59.43;32.17;79.08;;
66888;Laerm;67239;51.680;5.976;2023-03-26T19:58:26;62.32;33.91;80.05;;
66888;Laerm;67239;51.680;5.976;2023-03-26T20:00:53;66.09;33.91;85.21;;
66888;Laerm;67239;51.680;5.976;2023-03-26T20:03:27;67.81;39.65;82.03;;